Time;durP1;ratioP1;P1;durP2;ratioP2;P2;SDS_P1;SDS_P2;PMS_P1;PMS_P2;Temp;Humidity;BMP_temperature;BMP_pressure;BME280_temperature;BME280_humidity;BME280_pressure;Samples;Min_cycle;Max_cycle;Signal;HPM_P1;HPM_P2
2021/12/05 00:20:53;;;;;;;;;20.00;16.67;;;;;20.79;51.35;99573.13;106750;1305;18948;-76
2021/12/05 00:23:23;;;;;;;;;24.33;20.00;;;;;20.80;51.20;99579.16;106790;1303;20642;-76
2021/12/05 00:25:52;;;;;;;;;16.00;15.00;;;;;20.80;51.21;99581.33;106791;1304;19671;-76
2021/12/05 00:28:44;;;;;;;;;17.33;16.00;;;;;20.82;51.08;99581.23;106785;1303;22315;-76
2021/12/05 00:31:30;;;;;;;;;17.00;16.00;;;;;20.83;51.19;99584.20;107388;1298;21048;-76
2021/12/05 00:34:16;;;;;;;;;21.00;20.00;;;;;20.83;50.98;99583.11;107327;1298;28030;-76
2021/12/05 00:47:59;;;;;;;;;20.00;17.00;;;;;20.83;51.00;99594.01;106926;1305;18919;-76
2021/12/05 00:53:58;;;;;;;;;18.33;15.67;;;;;20.84;50.88;99585.92;106905;1304;19311;-76
2021/12/05 00:56:29;;;;;;;;;17.33;16.00;;;;;20.84;50.81;99586.05;106843;1304;19178;-76
2021/12/05 01:04:49;;;;;;;;;19.67;17.00;;;;;20.85;50.68;99595.60;106422;1308;19925;-76
2021/12/05 01:10:08;;;;;;;;;19.00;17.00;;;;;20.84;50.79;99601.51;106388;1307;20407;-75
2021/12/05 01:13:02;;;;;;;;;19.00;15.00;;;;;20.83;50.65;99597.36;106913;1304;147679;-76
2021/12/05 01:15:28;;;;;;;;;17.00;16.00;;;;;20.84;50.69;99599.33;106626;1307;22249;-75
2021/12/05 01:18:00;;;;;;;;;22.00;18.50;;;;;20.84;50.58;99600.91;106566;1304;21403;-75
2021/12/05 01:20:27;;;;;;;;;18.33;16.00;;;;;20.84;50.44;99602.26;106992;1304;18468;-75
2021/12/05 01:22:59;;;;;;;;;19.50;16.00;;;;;20.82;50.46;99599.02;106986;1304;18549;-76
2021/12/05 01:25:35;;;;;;;;;19.00;14.67;;;;;20.83;50.61;99602.60;107010;1307;22701;-75
2021/12/05 01:28:07;;;;;;;;;17.50;16.00;;;;;20.82;50.48;99602.47;106934;1304;20983;-75
2021/12/05 01:30:41;;;;;;;;;17.00;16.00;;;;;20.82;50.58;99605.52;107051;1301;21284;-75
2021/12/05 01:33:13;;;;;;;;;18.33;16.00;;;;;20.82;50.57;99609.55;107103;1301;19448;-75
2021/12/05 01:35:58;;;;;;;;;20.00;17.50;;;;;20.81;50.49;99610.41;107450;1298;23562;-76
2021/12/05 01:38:38;;;;;;;;;19.67;18.33;;;;;20.81;50.46;99607.90;107563;1299;19091;-75
2021/12/05 01:44:22;;;;;;;;;19.00;17.00;;;;;20.80;50.32;99602.40;107272;1298;18389;-76
2021/12/05 01:55:00;;;;;;;;;17.00;15.33;;;;;20.80;50.21;99580.25;107576;1298;18880;-76
2021/12/05 01:57:45;;;;;;;;;13.00;13.00;;;;;20.79;50.08;99576.19;107585;1298;18959;-76
2021/12/05 02:11:23;;;;;;;;;19.00;19.00;;;;;20.79;50.04;99563.83;106778;1304;19403;-73
2021/12/05 02:29:19;;;;;;;;;17.00;17.00;;;;;20.78;50.01;99568.43;106765;1303;20297;-75
2021/12/05 02:30:55;;;;;;;;;19.00;16.00;;;;;20.79;49.96;99566.70;106403;1311;18962;-76
2021/12/05 02:41:28;;;;;;;;;15.67;15.00;;;;;20.78;49.83;99565.33;106299;1307;19347;-75
2021/12/05 02:44:00;;;;;;;;;19.00;16.67;;;;;20.78;49.83;99565.21;106228;1309;21017;-76
2021/12/05 02:46:28;;;;;;;;;18.00;16.00;;;;;20.78;49.89;99567.80;106175;1310;20264;-75
2021/12/05 02:48:56;;;;;;;;;16.00;16.00;;;;;20.78;49.81;99567.42;106626;1304;18108;-76
2021/12/05 02:51:22;;;;;;;;;20.00;17.00;;;;;20.78;49.69;99563.27;106859;1304;19199;-76
2021/12/05 02:53:51;;;;;;;;;16.00;14.33;;;;;20.78;49.80;99561.98;106846;1301;28236;-76
2021/12/05 02:56:17;;;;;;;;;22.33;18.00;;;;;20.77;49.81;99560.43;106880;1303;22215;-76
2021/12/05 02:58:47;;;;;;;;;17.00;17.00;;;;;20.77;49.66;99555.70;106918;1304;18919;-76
2021/12/05 03:01:18;;;;;;;;;15.00;14.00;;;;;20.77;49.53;99556.33;107367;1298;20596;-76
2021/12/05 03:03:44;;;;;;;;;15.50;14.00;;;;;20.76;49.73;99556.84;107591;1301;18449;-76
2021/12/05 03:06:15;;;;;;;;;16.00;16.00;;;;;20.75;49.73;99555.44;107576;1301;18659;-76
2021/12/05 03:08:41;;;;;;;;;19.67;16.67;;;;;20.75;49.61;99556.02;107580;1298;20454;-76
2021/12/05 03:11:07;;;;;;;;;16.00;15.00;;;;;20.74;49.60;99563.96;107484;1300;18154;-75
2021/12/05 03:13:33;;;;;;;;;19.00;16.00;;;;;20.74;49.56;99571.27;107492;1300;18867;-76
2021/12/05 03:15:59;;;;;;;;;16.00;14.00;;;;;20.75;49.57;99577.50;107458;1302;18655;-76
2021/12/05 03:18:25;;;;;;;;;17.67;16.00;;;;;20.74;49.57;99578.27;107591;1303;19158;-76
2021/12/05 03:20:51;;;;;;;;;19.50;16.00;;;;;20.73;49.53;99573.56;107508;1298;19147;-76
2021/12/05 03:23:17;;;;;;;;;16.00;15.50;;;;;20.74;49.67;99570.67;107425;1300;18740;-76
2021/12/05 03:25:43;;;;;;;;;17.00;15.00;;;;;20.74;49.61;99573.19;107503;1298;18142;-76
2021/12/05 03:28:09;;;;;;;;;16.00;14.00;;;;;20.73;49.51;99570.30;107480;1298;20712;-76
2021/12/05 03:30:35;;;;;;;;;17.00;16.00;;;;;20.75;49.36;99577.22;107502;1301;22295;-76
2021/12/05 03:33:01;;;;;;;;;17.00;16.00;;;;;20.74;49.42;99575.70;107528;1298;18218;-77
2021/12/05 03:35:27;;;;;;;;;20.00;16.00;;;;;20.73;49.45;99570.27;107477;1300;18701;-75
2021/12/05 03:37:53;;;;;;;;;16.50;15.00;;;;;20.73;49.33;99567.87;107496;1298;18727;-75
2021/12/05 03:40:19;;;;;;;;;16.00;14.00;;;;;20.73;49.35;99574.16;107474;1301;18177;-75
2021/12/05 03:42:45;;;;;;;;;18.00;18.00;;;;;20.73;49.41;99574.44;107522;1298;18597;-75
2021/12/05 03:45:11;;;;;;;;;19.00;14.00;;;;;20.73;49.36;99573.48;107591;1304;19651;-75
2021/12/05 03:47:37;;;;;;;;;16.50;14.00;;;;;20.73;49.23;99576.29;107537;1300;18107;-76
2021/12/05 03:50:03;;;;;;;;;17.00;14.00;;;;;20.72;49.24;99574.69;107512;1298;20364;-76
2021/12/05 03:52:29;;;;;;;;;17.00;16.00;;;;;20.73;49.27;99578.59;107459;1300;18657;-76
2021/12/05 03:54:55;;;;;;;;;17.00;14.67;;;;;20.72;49.18;99583.53;107506;1298;18884;-76
2021/12/05 03:57:21;;;;;;;;;16.67;14.00;;;;;20.72;49.34;99589.48;107589;1301;18797;-76
2021/12/05 03:59:47;;;;;;;;;18.00;16.00;;;;;20.71;49.33;99587.98;107567;1301;18727;-76
2021/12/05 04:02:13;;;;;;;;;16.50;16.00;;;;;20.70;49.17;99586.48;107547;1300;19232;-76
2021/12/05 04:04:40;;;;;;;;;18.00;16.00;;;;;20.71;49.10;99593.09;107431;1302;19339;-76
2021/12/05 04:07:06;;;;;;;;;16.67;16.00;;;;;20.69;49.35;99590.06;107434;1298;19857;-76
2021/12/05 04:09:33;;;;;;;;;14.00;13.00;;;;;20.70;49.11;99592.87;107565;1301;18242;-76
2021/12/05 04:12:01;;;;;;;;;16.67;15.33;;;;;20.70;49.16;99593.38;107431;1298;18907;-77
2021/12/05 04:14:27;;;;;;;;;19.00;15.67;;;;;20.70;48.98;99595.89;107445;1298;20652;-76
2021/12/05 04:16:52;;;;;;;;;20.00;17.00;;;;;20.67;49.17;99590.02;107421;1300;18825;-76
2021/12/05 04:19:18;;;;;;;;;17.00;16.50;;;;;20.70;49.10;99596.14;107368;1300;18681;-76
2021/12/05 04:21:44;;;;;;;;;13.00;12.00;;;;;20.70;49.03;99595.77;107353;1300;20817;-76
2021/12/05 04:24:10;;;;;;;;;18.00;15.50;;;;;20.70;49.07;99599.02;107315;1300;18181;-75
2021/12/05 04:26:36;;;;;;;;;15.50;14.50;;;;;20.70;49.12;99598.15;107205;1300;19231;-77
2021/12/05 04:29:02;;;;;;;;;19.00;14.00;;;;;20.69;48.92;99594.91;107216;1303;19230;-76
2021/12/05 04:31:28;;;;;;;;;16.00;14.50;;;;;20.70;49.05;99594.87;107367;1301;18184;-75
2021/12/05 04:33:54;;;;;;;;;17.00;16.00;;;;;20.69;48.80;99597.00;107114;1304;19224;-75
2021/12/05 04:36:20;;;;;;;;;12.50;12.00;;;;;20.68;49.04;99600.90;107242;1301;18684;-76
2021/12/05 04:38:46;;;;;;;;;17.00;14.50;;;;;20.68;48.99;99601.23;107335;1298;24812;-76
2021/12/05 04:41:12;;;;;;;;;16.50;15.00;;;;;20.69;48.97;99605.09;107556;1298;18613;-75
2021/12/05 04:43:38;;;;;;;;;17.00;15.50;;;;;20.68;48.91;99606.46;107670;1298;18602;-76
2021/12/05 04:46:04;;;;;;;;;15.00;14.00;;;;;20.68;48.81;99605.51;107471;1298;19632;-76
2021/12/05 04:48:30;;;;;;;;;16.00;14.00;;;;;20.68;48.85;99609.11;107510;1298;18661;-76
2021/12/05 04:50:56;;;;;;;;;19.00;16.00;;;;;20.68;48.85;99613.81;107564;1301;18596;-76
2021/12/05 04:53:26;;;;;;;;;16.50;15.00;;;;;20.68;48.87;99614.52;107467;1299;18300;-75
2021/12/05 04:55:52;;;;;;;;;16.00;14.00;;;;;20.65;48.85;99610.95;107524;1298;20963;-76
2021/12/05 04:58:18;;;;;;;;;16.00;16.00;;;;;20.67;48.65;99610.16;107545;1298;21107;-76
2021/12/05 05:00:44;;;;;;;;;15.00;14.00;;;;;20.66;48.64;99613.30;107530;1298;19690;-76
2021/12/05 05:03:10;;;;;;;;;14.50;13.00;;;;;20.67;48.65;99616.27;107529;1298;21799;-75
2021/12/05 05:05:40;;;;;;;;;16.67;15.67;;;;;20.67;48.72;99613.75;107514;1298;18831;-76
2021/12/05 05:08:06;;;;;;;;;19.67;16.00;;;;;20.67;48.80;99610.61;107585;1298;18340;-76
2021/12/05 05:10:32;;;;;;;;;19.50;16.50;;;;;20.66;48.59;99612.63;107505;1298;18764;-76
2021/12/05 05:12:58;;;;;;;;;17.00;16.00;;;;;20.67;48.69;99606.72;107517;1298;18829;-76
2021/12/05 05:15:26;;;;;;;;;16.00;13.00;;;;;20.66;48.74;99609.11;107525;1298;22747;-75
2021/12/05 05:17:53;;;;;;;;;15.33;14.00;;;;;20.67;48.71;99606.14;107478;1298;21188;-75
2021/12/05 05:20:23;;;;;;;;;16.33;14.00;;;;;20.67;48.62;99611.73;107505;1299;22001;-76
2021/12/05 05:23:03;;;;;;;;;16.33;16.33;;;;;20.66;48.58;99611.33;107485;1298;19717;-76
2021/12/05 05:26:13;;;;;;;;;14.33;14.33;;;;;20.66;48.54;99609.73;107544;1298;22847;-76
2021/12/05 05:40:16;;;;;;;;;16.00;14.33;;;;;20.66;48.37;99618.91;106975;1304;18961;-75
2021/12/05 05:50:54;;;;;;;;;19.33;18.67;;;;;20.65;48.20;99636.67;106927;1304;22359;-76
2021/12/05 05:53:20;;;;;;;;;15.00;15.00;;;;;20.65;48.29;99637.80;106941;1304;18640;-76
2021/12/05 05:55:48;;;;;;;;;18.50;15.00;;;;;20.65;48.19;99636.14;106942;1304;18137;-75
2021/12/05 05:58:16;;;;;;;;;13.00;12.67;;;;;20.65;48.26;99637.09;106969;1305;19581;-76
2021/12/05 06:00:52;;;;;;;;;16.00;15.00;;;;;20.65;48.31;99637.30;106919;1304;18863;-76
2021/12/05 06:03:20;;;;;;;;;15.00;13.00;;;;;20.65;48.30;99636.21;106959;1304;18391;-76
2021/12/05 06:05:46;;;;;;;;;17.00;16.00;;;;;20.65;48.12;99641.58;106986;1304;22870;-75
2021/12/05 06:08:12;;;;;;;;;17.00;16.00;;;;;20.66;48.28;99642.04;107217;1299;20271;-75
2021/12/05 06:10:39;;;;;;;;;17.00;15.00;;;;;20.65;48.16;99640.86;107564;1298;22294;-76
2021/12/05 06:13:05;;;;;;;;;16.50;15.50;;;;;20.64;48.06;99638.09;107543;1299;20727;-76
2021/12/05 06:15:30;;;;;;;;;16.00;14.00;;;;;20.65;48.13;99648.94;107573;1298;18636;-76
2021/12/05 06:17:56;;;;;;;;;16.50;15.00;;;;;20.65;47.87;99651.29;107545;1298;19813;-76
2021/12/05 06:20:24;;;;;;;;;15.00;15.00;;;;;20.66;47.98;99657.69;107481;1298;18620;-76
2021/12/05 06:22:50;;;;;;;;;17.00;16.67;;;;;20.65;47.99;99662.35;107503;1298;18822;-76
2021/12/05 06:25:20;;;;;;;;;14.00;13.00;;;;;20.65;48.00;99664.19;107430;1298;18726;-76
2021/12/05 06:27:46;;;;;;;;;16.00;15.00;;;;;20.64;47.89;99659.73;107503;1298;22337;-76
2021/12/05 06:30:16;;;;;;;;;19.00;17.00;;;;;20.64;47.93;99662.83;107473;1299;18644;-76
2021/12/05 06:38:12;;;;;;;;;15.00;13.00;;;;;20.64;47.95;99671.39;107567;1295;22021;-75
2021/12/05 06:41:06;;;;;;;;;20.00;17.00;;;;;20.63;47.78;99669.98;107417;1301;18392;-76
2021/12/05 06:46:19;;;;;;;;;16.50;16.00;;;;;20.63;47.67;99678.69;107564;1299;21317;-77
2021/12/05 06:48:45;;;;;;;;;19.00;16.00;;;;;20.63;47.77;99676.53;107527;1298;19100;-76
2021/12/05 06:51:11;;;;;;;;;17.67;16.00;;;;;20.63;47.65;99681.09;107543;1298;19277;-76
2021/12/05 06:53:37;;;;;;;;;16.67;15.67;;;;;20.62;47.60;99684.23;107445;1298;20389;-76
2021/12/05 06:56:03;;;;;;;;;17.00;16.00;;;;;20.60;47.66;99680.73;107505;1298;20904;-77
2021/12/05 06:58:29;;;;;;;;;17.00;17.00;;;;;20.62;47.50;99686.40;107492;1299;19227;-77
2021/12/05 07:00:55;;;;;;;;;20.00;19.00;;;;;20.63;47.65;99692.02;107511;1298;21860;-77
2021/12/05 07:03:21;;;;;;;;;18.00;15.50;;;;;20.63;47.49;99696.91;107530;1298;18090;-77
2021/12/05 07:05:55;;;;;;;;;20.50;19.00;;;;;20.64;47.48;99701.30;107492;1301;19211;-76
2021/12/05 07:08:24;;;;;;;;;23.00;20.33;;;;;20.62;47.69;99703.66;107589;1298;18848;-77
2021/12/05 07:10:57;;;;;;;;;17.00;15.67;;;;;20.70;47.78;99705.21;107194;1298;23414;-77
2021/12/05 07:16:15;;;;;;;;;16.00;16.00;;;;;20.77;47.90;99712.71;107573;1299;19461;-77
2021/12/05 07:18:54;;;;;;;;;18.33;18.33;;;;;20.79;47.95;99715.45;107473;1299;19916;-77
2021/12/05 07:21:37;;;;;;;;;19.33;17.67;;;;;20.78;48.10;99726.03;107570;1299;18880;-77
2021/12/05 07:24:11;;;;;;;;;16.00;16.00;;;;;20.79;48.08;99725.98;107603;1299;19321;-78
2021/12/05 07:27:06;;;;;;;;;25.00;19.67;;;;;20.77;48.10;99723.85;107478;1298;20483;-77
2021/12/05 07:40:40;;;;;;;;;20.00;18.00;;;;;20.81;48.12;99722.27;106724;1306;18890;-79
2021/12/05 07:43:07;;;;;;;;;17.00;16.00;;;;;20.81;48.39;99726.02;106773;1303;21002;-75
2021/12/05 07:45:35;;;;;;;;;19.67;16.67;;;;;20.82;48.58;99732.98;106835;1303;19256;-75
2021/12/05 07:48:09;;;;;;;;;23.67;19.67;;;;;20.82;48.50;99734.36;106778;1304;21511;-75
2021/12/05 07:50:42;;;;;;;;;20.33;18.33;;;;;20.81;48.45;99738.02;106760;1303;22222;-75
2021/12/05 07:53:16;;;;;;;;;19.00;17.00;;;;;20.80;48.46;99740.70;106768;1303;20725;-75
2021/12/05 07:55:44;;;;;;;;;19.50;19.50;;;;;20.80;48.43;99746.31;106723;1305;18858;-75
2021/12/05 07:58:26;;;;;;;;;16.33;16.00;;;;;20.77;48.48;99745.13;106701;1304;28897;-76
2021/12/05 08:01:00;;;;;;;;;18.67;18.67;;;;;20.77;48.24;99749.75;106679;1304;22295;-76
2021/12/05 08:14:32;;;;;;;;;23.00;19.00;;;;;20.85;47.99;99754.23;107165;1298;22337;-76
2021/12/05 08:17:00;;;;;;;;;19.67;17.00;;;;;20.87;48.26;99758.09;107435;1298;22569;-75
2021/12/05 08:19:26;;;;;;;;;24.00;21.00;;;;;20.93;48.43;99758.63;107466;1298;21672;-75
2021/12/05 08:21:55;;;;;;;;;23.50;20.50;;;;;20.94;48.53;99756.63;107400;1298;19975;-75
2021/12/05 08:24:21;;;;;;;;;24.67;23.67;;;;;20.95;48.67;99758.10;107585;1301;18861;-73
2021/12/05 08:26:49;;;;;;;;;20.50;19.00;;;;;20.96;48.61;99762.80;107504;1300;18605;-74
2021/12/05 08:29:19;;;;;;;;;25.67;24.00;;;;;20.95;48.50;99768.66;107474;1300;18948;-73
2021/12/05 08:32:05;;;;;;;;;23.50;20.50;;;;;20.95;48.41;99775.48;107443;1301;18792;-74
2021/12/05 08:37:49;;;;;;;;;22.00;20.33;;;;;20.92;48.52;99775.04;107264;1300;21699;-72
2021/12/05 08:43:25;;;;;;;;;20.67;19.33;;;;;20.94;48.63;99792.42;107440;1300;18903;-73
2021/12/05 09:30:07;;;;;;;;;178.75;134.25;;;;;21.03;50.11;99836.13;107309;1300;18925;-75
2021/12/05 09:52:21;;;;;;;;;91.33;68.00;;;;;21.12;50.23;99828.48;107425;1301;18904;-76
2021/12/05 10:03:08;;;;;;;;;82.00;60.67;;;;;21.17;50.87;99826.33;106861;1307;19532;-74
2021/12/05 10:08:45;;;;;;;;;79.00;57.67;;;;;21.31;50.89;99821.30;106622;1307;18488;-74
2021/12/05 10:14:19;;;;;;;;;79.00;60.00;;;;;21.14;50.14;99821.14;106287;1308;22879;-73
2021/12/05 10:16:57;;;;;;;;;84.00;60.67;;;;;21.11;50.15;99820.70;106458;1305;22327;-73
2021/12/05 10:35:58;;;;;;;;;67.00;54.50;;;;;20.01;41.76;99829.16;106349;1307;19829;-74
2021/12/05 10:38:26;;;;;;;;;68.00;53.67;;;;;19.92;41.93;99825.10;106532;1307;20876;-72
2021/12/05 10:40:59;;;;;;;;;62.67;51.00;;;;;20.06;42.08;99823.73;106819;1307;18488;-71
2021/12/05 10:43:25;;;;;;;;;67.33;52.00;;;;;20.20;42.41;99830.31;107329;1305;21110;-74
2021/12/05 10:45:51;;;;;;;;;58.50;48.00;;;;;20.30;42.79;99823.45;106812;1303;18812;-73
2021/12/05 10:48:17;;;;;;;;;61.50;48.50;;;;;20.36;43.07;99827.15;106931;1308;22423;-73
2021/12/05 10:50:43;;;;;;;;;61.00;48.00;;;;;20.40;43.34;99826.10;107293;1304;19246;-73
2021/12/05 10:53:09;;;;;;;;;52.67;45.00;;;;;20.43;43.54;99824.58;107504;1301;18670;-73
2021/12/05 10:55:35;;;;;;;;;54.33;46.67;;;;;20.45;43.90;99826.02;107469;1300;18140;-73
2021/12/05 10:58:02;;;;;;;;;49.67;43.00;;;;;20.45;44.12;99822.52;107518;1298;22266;-74
2021/12/05 11:00:28;;;;;;;;;47.67;42.00;;;;;20.47;44.32;99819.13;107527;1298;19333;-73
2021/12/05 11:02:53;;;;;;;;;45.67;41.33;;;;;20.46;44.58;99823.68;107533;1300;18194;-74
2021/12/05 11:05:19;;;;;;;;;47.00;40.50;;;;;20.48;44.90;99828.63;107454;1301;18763;-73
2021/12/05 11:07:45;;;;;;;;;49.50;42.50;;;;;20.49;44.87;99828.88;107470;1301;18669;-74
2021/12/05 11:10:11;;;;;;;;;44.67;39.00;;;;;20.50;45.08;99829.34;107425;1300;18409;-74
2021/12/05 11:12:38;;;;;;;;;48.00;42.67;;;;;20.51;45.23;99833.27;107542;1300;18616;-74
2021/12/05 11:15:04;;;;;;;;;46.00;41.00;;;;;20.51;45.44;99835.17;107528;1298;20338;-74
2021/12/05 11:17:30;;;;;;;;;45.00;40.50;;;;;20.53;45.51;99836.66;107516;1300;18334;-74
2021/12/05 11:19:58;;;;;;;;;39.00;38.33;;;;;20.52;45.70;99840.19;107507;1300;18622;-74
2021/12/05 11:22:24;;;;;;;;;49.00;39.00;;;;;20.51;45.86;99843.73;107530;1295;19422;-74
2021/12/05 11:24:50;;;;;;;;;41.50;38.50;;;;;20.53;45.81;99846.55;107520;1298;18271;-72
2021/12/05 11:27:16;;;;;;;;;41.50;38.00;;;;;20.52;45.90;99849.40;107477;1298;20615;-72
2021/12/05 11:29:42;;;;;;;;;38.00;36.00;;;;;20.53;46.05;99849.65;107467;1298;18651;-73
2021/12/05 11:32:07;;;;;;;;;46.00;38.00;;;;;20.53;46.14;99847.27;107434;1300;18205;-73
2021/12/05 11:34:33;;;;;;;;;36.67;33.67;;;;;20.53;46.24;99845.30;107450;1298;18903;-73
2021/12/05 11:36:59;;;;;;;;;39.00;35.00;;;;;20.53;46.31;99846.80;107442;1298;22388;-74
2021/12/05 11:39:25;;;;;;;;;40.50;33.00;;;;;20.53;46.26;99850.95;107483;1302;18426;-73
2021/12/05 11:41:51;;;;;;;;;38.50;35.00;;;;;20.54;46.38;99851.96;107487;1298;19084;-73
2021/12/05 11:44:17;;;;;;;;;32.50;30.00;;;;;20.52;46.53;99856.10;107434;1300;18783;-73
2021/12/05 11:46:44;;;;;;;;;32.00;30.50;;;;;20.53;46.48;99859.95;107505;1303;18200;-73
2021/12/05 11:49:10;;;;;;;;;33.67;29.67;;;;;20.52;46.53;99855.05;107517;1297;26078;-73
2021/12/05 11:51:36;;;;;;;;;31.67;29.67;;;;;20.53;46.54;99855.89;107519;1298;19750;-73
2021/12/05 11:54:03;;;;;;;;;31.00;27.50;;;;;20.53;46.61;99854.02;107483;1298;24394;-73
2021/12/05 11:56:29;;;;;;;;;36.00;32.50;;;;;20.53;46.68;99859.66;107482;1298;18968;-73
2021/12/05 11:58:55;;;;;;;;;29.00;26.00;;;;;20.52;46.55;99857.56;107482;1302;18669;-73
2021/12/05 12:01:21;;;;;;;;;30.50;26.00;;;;;20.53;46.76;99852.71;107479;1301;18428;-73
2021/12/05 12:03:47;;;;;;;;;32.50;29.50;;;;;20.53;46.75;99854.60;107582;1301;20740;-73
2021/12/05 12:06:13;;;;;;;;;27.00;25.00;;;;;20.53;46.64;99858.53;107414;1300;18638;-73
2021/12/05 12:08:39;;;;;;;;;32.00;30.50;;;;;20.51;46.78;99855.66;107486;1298;18319;-73
2021/12/05 12:11:05;;;;;;;;;33.50;30.00;;;;;20.52;46.82;99854.67;107551;1298;19219;-73
2021/12/05 12:13:31;;;;;;;;;30.50;28.50;;;;;20.52;46.84;99851.10;107510;1299;22219;-73
2021/12/05 12:15:59;;;;;;;;;31.00;29.00;;;;;20.52;46.71;99848.69;107441;1298;19924;-73
2021/12/05 12:18:28;;;;;;;;;35.00;30.00;;;;;20.53;46.74;99850.77;107480;1298;20577;-73
2021/12/05 12:20:54;;;;;;;;;25.33;24.00;;;;;20.50;46.79;99845.01;107589;1300;19477;-74
2021/12/05 12:23:20;;;;;;;;;28.00;27.00;;;;;20.54;46.82;99857.40;107587;1300;18591;-74
2021/12/05 12:25:47;;;;;;;;;34.33;29.00;;;;;20.54;46.77;99858.91;107517;1298;21652;-72
2021/12/05 12:28:12;;;;;;;;;24.00;23.50;;;;;20.56;46.72;99855.58;107486;1302;19280;-73
2021/12/05 12:30:38;;;;;;;;;33.00;23.50;;;;;20.55;46.79;99860.17;107573;1298;18190;-73
2021/12/05 12:33:04;;;;;;;;;30.00;27.50;;;;;20.55;47.01;99862.46;107531;1300;19178;-73
2021/12/05 12:35:32;;;;;;;;;31.50;27.00;;;;;20.55;47.00;99868.17;107476;1300;22487;-73
2021/12/05 12:37:58;;;;;;;;;26.67;23.33;;;;;20.55;46.89;99869.26;107501;1298;19281;-73
2021/12/05 12:40:24;;;;;;;;;31.50;26.00;;;;;20.54;46.86;99875.33;107494;1300;19528;-74
2021/12/05 12:42:50;;;;;;;;;26.50;23.00;;;;;20.50;46.79;99871.90;107493;1298;19341;-74
2021/12/05 12:45:16;;;;;;;;;27.50;22.50;;;;;20.54;47.03;99880.19;107565;1300;18407;-73
2021/12/05 12:47:43;;;;;;;;;26.33;23.33;;;;;20.54;46.89;99875.45;107515;1298;18958;-74
2021/12/05 12:50:08;;;;;;;;;24.33;20.33;;;;;20.53;47.01;99867.83;107504;1298;19023;-74
2021/12/05 12:52:34;;;;;;;;;24.00;21.00;;;;;20.54;46.98;99872.73;107525;1299;18838;-74
2021/12/05 12:55:01;;;;;;;;;26.00;21.00;;;;;20.54;46.95;99873.45;107547;1298;18655;-74
2021/12/05 12:57:31;;;;;;;;;28.00;24.00;;;;;20.54;46.99;99874.83;107631;1301;19063;-73
2021/12/05 13:00:00;;;;;;;;;21.00;21.00;;;;;20.54;46.93;99880.23;107487;1296;22000;-74
2021/12/05 13:02:36;;;;;;;;;31.67;26.67;;;;;20.53;46.91;99882.69;107562;1298;19035;-74
2021/12/05 13:10:30;;;;;;;;;27.33;24.33;;;;;20.53;47.09;99875.20;107348;1300;18839;-72
2021/12/05 13:12:56;;;;;;;;;23.00;22.00;;;;;20.53;47.14;99875.95;107520;1298;22439;-73
2021/12/05 13:15:22;;;;;;;;;25.67;20.33;;;;;20.54;47.08;99882.23;107508;1298;21720;-72
2021/12/05 13:17:48;;;;;;;;;23.50;22.50;;;;;20.55;46.96;99889.20;107472;1300;18810;-73
2021/12/05 13:20:14;;;;;;;;;22.67;21.33;;;;;20.54;47.10;99886.14;107520;1295;24380;-73
2021/12/05 13:22:40;;;;;;;;;20.00;19.00;;;;;20.56;46.83;99887.77;107466;1298;23819;-73
2021/12/05 13:25:06;;;;;;;;;22.33;20.33;;;;;20.56;47.04;99889.23;107506;1299;18893;-73
2021/12/05 13:27:32;;;;;;;;;26.00;22.00;;;;;20.54;46.78;99892.33;107427;1301;22262;-73
2021/12/05 13:29:58;;;;;;;;;23.50;20.00;;;;;20.56;46.99;99894.35;107504;1298;21988;-74
2021/12/05 13:32:25;;;;;;;;;22.50;20.00;;;;;20.58;46.87;99898.31;107505;1301;18625;-74
2021/12/05 13:34:52;;;;;;;;;20.50;19.00;;;;;20.56;47.03;99901.94;107506;1298;19612;-72
2021/12/05 13:37:18;;;;;;;;;23.00;18.50;;;;;20.55;47.10;99905.36;107447;1300;18250;-71
2021/12/05 13:39:44;;;;;;;;;18.67;16.67;;;;;20.54;47.10;99910.92;107511;1298;19242;-72
2021/12/05 13:42:10;;;;;;;;;20.33;20.00;;;;;20.54;47.12;99914.20;107465;1300;19041;-72
2021/12/05 13:44:36;;;;;;;;;20.50;19.50;;;;;20.55;47.12;99920.23;107456;1298;18282;-72
2021/12/05 13:47:02;;;;;;;;;20.50;19.50;;;;;20.54;46.97;99922.82;107433;1300;18576;-72
2021/12/05 13:49:28;;;;;;;;;21.67;18.67;;;;;20.50;47.09;99917.04;107421;1298;23830;-72
2021/12/05 13:51:54;;;;;;;;;20.00;19.00;;;;;20.49;46.97;99919.68;107386;1305;18803;-73
2021/12/05 13:54:20;;;;;;;;;21.00;19.00;;;;;20.53;46.99;99923.73;107289;1298;22439;-73
2021/12/05 13:56:46;;;;;;;;;20.00;20.00;;;;;20.53;46.88;99928.30;107403;1298;18979;-72
2021/12/05 13:59:12;;;;;;;;;22.00;18.50;;;;;20.54;46.87;99930.73;107479;1300;18683;-75
2021/12/05 14:01:38;;;;;;;;;23.00;18.00;;;;;20.57;47.00;99934.15;107415;1301;21926;-73
2021/12/05 14:04:06;;;;;;;;;19.00;18.00;;;;;20.58;47.37;99936.19;107687;1301;18869;-72
2021/12/05 14:06:32;;;;;;;;;19.00;17.00;;;;;20.59;47.50;99936.23;107527;1298;18494;-72
2021/12/05 14:08:58;;;;;;;;;20.00;17.00;;;;;20.64;47.71;99934.34;107473;1301;18572;-71
2021/12/05 14:11:24;;;;;;;;;22.00;21.00;;;;;20.71;47.96;99930.21;107435;1298;20145;-72
2021/12/05 14:13:50;;;;;;;;;40.50;35.50;;;;;20.73;49.11;99939.36;107290;1300;18914;-73
2021/12/05 14:16:16;;;;;;;;;43.00;36.67;;;;;20.35;48.35;99949.20;107608;1298;22420;-73
2021/12/05 14:18:42;;;;;;;;;38.00;33.50;;;;;20.03;47.92;99938.94;108406;1298;19269;-73
2021/12/05 14:21:08;;;;;;;;;46.00;37.00;;;;;20.10;48.65;99946.97;107506;1301;18234;-72
2021/12/05 14:23:33;;;;;;;;;38.50;31.50;;;;;20.39;48.68;99942.73;107478;1298;22253;-71
2021/12/05 14:26:00;;;;;;;;;32.00;30.00;;;;;20.62;49.79;99951.30;107455;1298;18627;-75
2021/12/05 14:28:26;;;;;;;;;38.00;31.33;;;;;20.74;50.03;99961.55;107416;1298;19107;-75
2021/12/05 14:30:54;;;;;;;;;29.50;28.50;;;;;20.83;50.64;99972.21;107512;1298;20863;-75
2021/12/05 14:33:20;;;;;;;;;32.33;29.67;;;;;20.95;51.52;99975.69;107383;1298;18864;-75
2021/12/05 14:35:47;;;;;;;;;31.00;29.00;;;;;21.06;52.10;99983.90;107422;1298;19582;-75
2021/12/05 14:38:13;;;;;;;;;28.00;25.33;;;;;21.11;51.99;99985.33;107448;1298;19296;-75
2021/12/05 14:40:40;;;;;;;;;29.50;26.50;;;;;21.15;51.85;99988.96;107891;1300;20311;-73
2021/12/05 14:43:06;;;;;;;;;28.00;28.00;;;;;21.18;51.79;99992.23;107396;1296;26925;-75
2021/12/05 14:45:32;;;;;;;;;30.00;26.50;;;;;21.22;51.70;99992.55;107865;1300;19169;-75
2021/12/05 14:48:00;;;;;;;;;25.00;24.00;;;;;21.27;51.54;100002.13;107437;1300;18758;-75
2021/12/05 14:50:26;;;;;;;;;125.00;90.00;;;;;21.29;51.31;100007.36;107341;1295;29468;-74
2021/12/05 14:52:52;;;;;;;;;169.50;129.00;;;;;21.28;51.25;100008.92;107377;1299;19220;-74
2021/12/05 14:55:18;;;;;;;;;285.50;199.50;;;;;21.29;51.19;100016.52;107369;1300;23028;-73
2021/12/05 14:57:44;;;;;;;;;205.67;145.33;;;;;21.29;51.26;100019.70;107399;1300;18860;-74
2021/12/05 15:00:10;;;;;;;;;113.00;89.00;;;;;21.26;51.26;100029.30;107462;1301;18808;-74
2021/12/05 15:02:36;;;;;;;;;100.50;71.00;;;;;21.24;50.47;100032.32;107235;1298;19097;-73
2021/12/05 15:05:02;;;;;;;;;91.33;68.00;;;;;21.21;50.46;100038.10;107478;1298;20680;-74
2021/12/05 15:07:28;;;;;;;;;88.67;67.00;;;;;21.21;50.43;100041.21;107990;1300;20678;-73
2021/12/05 15:09:54;;;;;;;;;84.00;62.67;;;;;21.23;50.55;100042.28;107362;1304;18885;-74
2021/12/05 15:12:20;;;;;;;;;77.67;59.67;;;;;21.27;50.65;100043.16;107306;1298;18533;-73
2021/12/05 15:14:46;;;;;;;;;77.67;58.67;;;;;21.27;50.70;100041.55;107434;1300;21451;-74
2021/12/05 15:17:12;;;;;;;;;73.67;54.33;;;;;21.26;50.40;100040.78;107302;1300;18684;-73
2021/12/05 15:19:38;;;;;;;;;86.00;60.50;;;;;21.26;50.29;100039.30;107384;1300;18902;-73
2021/12/05 15:22:04;;;;;;;;;74.00;55.00;;;;;21.19;50.22;100045.81;107434;1298;22992;-74